createdAt,value
2019-04-20T00:01:07.462Z,13.90
2019-04-20T00:04:20.494Z,13.90
2019-04-20T00:07:18.710Z,13.90
2019-04-20T00:10:24.234Z,13.90
2019-04-20T00:13:38.402Z,13.80
2019-04-20T00:16:33.784Z,13.80
2019-04-20T00:19:42.496Z,13.70
2019-04-20T00:22:50.434Z,13.70
2019-04-20T00:26:15.867Z,13.70
2019-04-20T00:29:32.196Z,13.60
2019-04-20T00:32:29.594Z,13.50
2019-04-20T00:35:21.047Z,13.50
2019-04-20T00:38:27.992Z,13.40
2019-04-20T00:41:29.788Z,13.40
2019-04-20T00:44:37.620Z,13.30
2019-04-20T00:47:48.944Z,13.20
2019-04-20T00:50:59.274Z,13.00
2019-04-20T00:53:52.381Z,12.90
2019-04-20T00:57:05.753Z,12.80
2019-04-20T01:00:19.811Z,12.70
2019-04-20T01:03:20.924Z,12.70
2019-04-20T01:06:43.825Z,12.70
2019-04-20T01:09:49.965Z,12.70
2019-04-20T01:13:02.376Z,12.80
2019-04-20T01:16:06.231Z,12.80
2019-04-20T01:19:03.927Z,12.90
2019-04-20T01:22:15.805Z,12.90
2019-04-20T01:25:23.072Z,12.80
2019-04-20T01:28:32.952Z,12.80
2019-04-20T01:31:33.613Z,12.90
2019-04-20T01:34:42.667Z,12.90
2019-04-20T01:37:54.391Z,12.80
2019-04-20T01:40:40.232Z,12.80
2019-04-20T01:43:43.908Z,12.60
2019-04-20T01:46:53.520Z,12.60
2019-04-20T01:49:58.573Z,12.60
2019-04-20T01:53:10.207Z,12.60
2019-04-20T01:56:18.347Z,12.50
2019-04-20T01:59:25.317Z,12.50
2019-04-20T02:02:29.551Z,12.50
2019-04-20T02:05:35.879Z,12.50
2019-04-20T02:08:40.066Z,12.40
2019-04-20T02:11:47.293Z,12.40
2019-04-20T02:14:55.246Z,12.40
2019-04-20T02:18:08.927Z,12.30
2019-04-20T02:21:15.101Z,12.30
2019-04-20T02:24:07.391Z,12.20
2019-04-20T02:27:10.381Z,12.30
2019-04-20T02:30:52.950Z,12.20
2019-04-20T02:33:57.366Z,12.20
2019-04-20T02:40:12.767Z,12.20
2019-04-20T02:46:17.095Z,12.10
2019-04-20T02:49:29.235Z,12.10
2019-04-20T02:52:45.342Z,12.10
2019-04-20T02:55:31.224Z,12.10
2019-04-20T02:58:45.523Z,12.10
2019-04-20T03:01:30.682Z,12.00
2019-04-20T03:04:29.012Z,12.00
2019-04-20T03:07:36.806Z,12.00
2019-04-20T03:10:52.514Z,12.00
2019-04-20T03:13:54.576Z,12.00
2019-04-20T03:17:08.684Z,12.00
2019-04-20T03:19:57.405Z,12.00
2019-04-20T03:23:27.824Z,11.90
2019-04-20T03:26:22.456Z,11.90
2019-04-20T03:29:34.879Z,12.00
2019-04-20T03:33:04.371Z,12.00
2019-04-20T03:35:58.725Z,12.00
2019-04-20T03:38:55.035Z,12.10
2019-04-20T03:41:44.437Z,12.10
2019-04-20T03:44:54.245Z,12.00
2019-04-20T03:48:03.021Z,12.00
2019-04-20T03:51:26.812Z,12.10
2019-04-20T03:54:25.207Z,12.00
2019-04-20T03:57:34.383Z,11.90
2019-04-20T04:00:43.251Z,11.80
2019-04-20T04:04:06.642Z,11.80
2019-04-20T04:06:49.996Z,11.90
2019-04-20T04:10:06.962Z,11.90
2019-04-20T04:13:12.239Z,11.80
2019-04-20T04:16:19.828Z,11.80
2019-04-20T04:19:27.968Z,11.80
2019-04-20T04:22:43.726Z,11.80
2019-04-20T04:25:47.481Z,11.80
2019-04-20T04:28:53.440Z,11.80
2019-04-20T04:32:06.623Z,11.80
2019-04-20T04:35:01.669Z,11.90
2019-04-20T04:38:06.970Z,11.90
2019-04-20T04:41:36.331Z,11.90
2019-04-20T04:44:18.007Z,11.90
2019-04-20T04:47:10.459Z,12.00
2019-04-20T04:50:18.306Z,12.00
2019-04-20T04:53:30.208Z,12.10
2019-04-20T04:56:26.829Z,12.10
2019-04-20T04:59:29.683Z,12.10
2019-04-20T05:02:38.023Z,12.10
2019-04-20T05:06:00.496Z,12.10
2019-04-20T05:08:55.042Z,12.10
2019-04-20T05:12:02.770Z,12.20
2019-04-20T05:15:10.135Z,12.30
2019-04-20T05:18:35.762Z,12.30
2019-04-20T05:21:30.214Z,12.40
2019-04-20T05:24:42.336Z,12.40
2019-04-20T05:27:50.890Z,12.50
2019-04-20T05:30:45.594Z,12.70
2019-04-20T05:34:10.855Z,13.10
2019-04-20T05:37:16.351Z,13.40
2019-04-20T05:40:16.492Z,13.70
2019-04-20T05:43:24.679Z,14.60
2019-04-20T05:46:32.086Z,16.60
2019-04-20T05:49:40.255Z,18.70
2019-04-20T05:53:01.747Z,20.40
2019-04-20T05:55:43.294Z,21.40
2019-04-20T05:58:53.591Z,22.40
2019-04-20T06:05:05.655Z,23.50
2019-04-20T06:08:05.172Z,24.50
2019-04-20T06:11:16.448Z,24.80
2019-04-20T06:14:13.271Z,24.70
2019-04-20T06:17:32.021Z,25.30
2019-04-20T06:20:46.747Z,25.70
2019-04-20T06:23:54.884Z,26.30
2019-04-20T06:27:00.654Z,26.80
2019-04-20T06:29:55.868Z,27.10
2019-04-20T06:36:52.647Z,27.50
2019-04-20T06:39:55.757Z,27.50
2019-04-20T06:42:59.721Z,27.60
2019-04-20T06:46:10.301Z,28.00
2019-04-20T06:49:18.347Z,28.40
2019-04-20T06:52:25.124Z,28.60
2019-04-20T06:55:34.445Z,28.70
2019-04-20T06:58:43.809Z,28.70
2019-04-20T07:01:41.969Z,28.80
2019-04-20T07:04:54.444Z,28.20
2019-04-20T07:10:57.856Z,28.20
2019-04-20T07:13:46.848Z,27.90
2019-04-20T07:17:09.630Z,28.10
2019-04-20T07:20:13.949Z,27.90
2019-04-20T07:26:31.822Z,28.10
2019-04-20T07:29:36.744Z,27.90
2019-04-20T07:32:42.684Z,27.40
2019-04-20T07:35:40.129Z,27.50
2019-04-20T07:38:49.927Z,27.90
2019-04-20T07:41:54.653Z,28.30
2019-04-20T07:45:01.338Z,28.40
2019-04-20T07:48:06.123Z,28.20
2019-04-20T07:51:00.673Z,28.40
2019-04-20T07:54:16.555Z,28.60
2019-04-20T07:57:18.371Z,28.30
2019-04-20T08:00:26.330Z,28.10
2019-04-20T08:03:33.578Z,27.90
2019-04-20T08:06:26.410Z,27.80
2019-04-20T08:09:34.170Z,27.90
2019-04-20T08:12:55.649Z,28.10
2019-04-20T08:19:01.390Z,28.20
2019-04-20T08:22:12.328Z,27.80
2019-04-20T08:25:06.936Z,27.80
2019-04-20T08:28:01.652Z,27.80
2019-04-20T08:31:35.926Z,27.80
2019-04-20T08:34:49.030Z,27.50
2019-04-20T08:38:14.859Z,27.40
2019-04-20T08:40:59.670Z,27.50
2019-04-20T08:44:18.789Z,27.70
2019-04-20T08:47:35.119Z,27.80
2019-04-20T08:50:20.463Z,27.40
2019-04-20T08:53:27.637Z,27.70
2019-04-20T08:56:18.732Z,27.70
2019-04-20T08:59:13.863Z,27.90
2019-04-20T09:02:18.819Z,27.70
2019-04-20T09:05:34.734Z,27.80
2019-04-20T09:08:42.258Z,27.50
2019-04-20T09:11:57.679Z,27.20
2019-04-20T09:14:40.242Z,26.50
2019-04-20T09:17:54.096Z,25.80
2019-04-20T09:21:01.487Z,25.40
2019-04-20T09:24:22.685Z,24.80
2019-04-20T09:27:18.201Z,24.30
2019-04-20T09:30:25.788Z,23.90
2019-04-20T09:33:41.767Z,23.70
2019-04-20T09:36:53.822Z,23.60
2019-04-20T09:40:21.299Z,23.20
2019-04-20T09:43:13.983Z,22.90
2019-04-20T09:46:16.156Z,22.80
2019-04-20T09:49:34.390Z,23.00
2019-04-20T09:52:38.186Z,23.00
2019-04-20T09:55:46.866Z,23.10
2019-04-20T09:58:55.211Z,23.20
2019-04-20T10:01:45.954Z,23.10
2019-04-20T10:04:45.504Z,22.70
2019-04-20T10:07:55.961Z,22.70
2019-04-20T10:10:54.439Z,22.70
2019-04-20T10:13:59.292Z,22.60
2019-04-20T10:17:02.733Z,22.40
2019-04-20T10:20:12.812Z,22.30
2019-04-20T10:23:12.574Z,22.50
2019-04-20T10:26:16.453Z,22.60
2019-04-20T10:29:20.069Z,22.90
2019-04-20T10:32:31.077Z,22.70
2019-04-20T10:35:29.737Z,22.70
2019-04-20T10:38:35.895Z,22.80
2019-04-20T10:41:46.960Z,22.90
2019-04-20T10:44:45.084Z,22.90
2019-04-20T10:47:48.617Z,22.70
2019-04-20T10:50:52.795Z,22.50
2019-04-20T10:53:56.291Z,22.40
2019-04-20T10:56:59.830Z,22.30
2019-04-20T11:00:05.834Z,22.20
2019-04-20T11:03:10.591Z,22.10
2019-04-20T11:06:14.519Z,22.00
2019-04-20T11:09:18.502Z,22.00
2019-04-20T11:12:22.177Z,22.00
2019-04-20T11:15:26.209Z,22.00
2019-04-20T11:18:29.768Z,22.00
2019-04-20T11:21:34.362Z,22.10
2019-04-20T11:24:38.564Z,22.20
2019-04-20T11:27:43.851Z,22.40
2019-04-20T11:30:48.066Z,22.50
2019-04-20T11:34:15.018Z,22.30
2019-04-20T11:37:17.259Z,22.10
2019-04-20T11:40:21.126Z,21.90
2019-04-20T11:43:25.988Z,21.90
2019-04-20T11:46:30.494Z,21.90
2019-04-20T11:49:35.373Z,21.90
2019-04-20T11:52:43.845Z,21.80
2019-04-20T11:55:44.585Z,21.90
2019-04-20T11:58:49.091Z,21.90
2019-04-20T12:02:05.800Z,21.90
2019-04-20T12:05:21.096Z,22.00
2019-04-20T12:08:16.650Z,21.80
2019-04-20T12:11:30.382Z,21.80
2019-04-20T12:14:25.341Z,21.80
2019-04-20T12:17:29.347Z,21.80
2019-04-20T12:20:32.987Z,21.80
2019-04-20T12:23:36.467Z,21.70
2019-04-20T12:26:40.592Z,21.70
2019-04-20T12:29:44.144Z,21.70
2019-04-20T12:32:52.659Z,21.70
2019-04-20T12:35:54.225Z,21.60
2019-04-20T12:38:59.087Z,21.40
2019-04-20T12:42:07.269Z,21.30
2019-04-20T12:45:11.359Z,21.30
2019-04-20T12:48:15.626Z,21.30
2019-04-20T12:51:19.682Z,21.30
2019-04-20T12:54:23.251Z,21.30
2019-04-20T12:57:26.873Z,21.40
2019-04-20T13:00:45.907Z,21.60
2019-04-20T13:03:49.876Z,21.70
2019-04-20T13:06:55.206Z,21.50
2019-04-20T13:10:01.904Z,21.40
2019-04-20T13:13:05.827Z,21.30
2019-04-20T13:16:12.250Z,21.30
2019-04-20T13:19:17.190Z,21.30
2019-04-20T13:22:21.121Z,21.30
2019-04-20T13:25:25.088Z,21.50
2019-04-20T13:28:30.713Z,21.40
2019-04-20T13:31:34.597Z,21.50
2019-04-20T13:34:40.311Z,21.50
2019-04-20T13:37:45.129Z,21.50
2019-04-20T13:40:49.260Z,21.40
2019-04-20T13:43:54.843Z,21.40
2019-04-20T13:46:58.821Z,21.30
2019-04-20T13:50:03.294Z,21.30
2019-04-20T13:53:07.401Z,21.30
2019-04-20T13:56:11.823Z,21.30
2019-04-20T13:59:30.018Z,21.30
2019-04-20T14:02:44.748Z,21.20
2019-04-20T14:05:48.799Z,21.30
2019-04-20T14:08:53.649Z,21.20
2019-04-20T14:12:10.311Z,21.10
2019-04-20T14:15:02.913Z,21.00
2019-04-20T14:18:06.976Z,21.00
2019-04-20T14:21:11.930Z,21.10
2019-04-20T14:24:16.992Z,21.10
2019-04-20T14:27:21.309Z,21.00
2019-04-20T14:30:24.915Z,21.10
2019-04-20T14:33:28.604Z,21.00
2019-04-20T14:36:32.901Z,21.00
2019-04-20T14:39:36.479Z,21.00
2019-04-20T14:42:46.438Z,21.00
2019-04-20T14:45:45.136Z,21.00
2019-04-20T14:48:49.039Z,21.00
2019-04-20T14:51:54.624Z,21.10
2019-04-20T14:54:57.737Z,20.90
2019-04-20T14:58:03.697Z,20.90
2019-04-20T15:01:09.342Z,20.80
2019-04-20T15:04:16.785Z,20.80
2019-04-20T15:07:18.413Z,20.80
2019-04-20T15:10:22.702Z,20.80
2019-04-20T15:13:26.764Z,20.70
2019-04-20T15:16:30.724Z,20.70
2019-04-20T15:19:35.985Z,20.70
2019-04-20T15:22:43.761Z,20.70
2019-04-20T15:25:48.545Z,20.70
2019-04-20T15:28:52.541Z,20.70
2019-04-20T15:31:56.505Z,20.70
2019-04-20T15:35:00.696Z,20.60
2019-04-20T15:38:05.124Z,20.70
2019-04-20T15:41:12.117Z,20.60
2019-04-20T15:44:15.264Z,20.50
2019-04-20T15:47:20.073Z,20.50
2019-04-20T15:50:23.765Z,20.40
2019-04-20T15:53:27.186Z,20.40
2019-04-20T15:56:30.654Z,20.40
2019-04-20T15:59:34.728Z,20.30
2019-04-20T16:02:41.232Z,20.30
2019-04-20T16:05:49.406Z,20.20
2019-04-20T16:08:54.573Z,20.20
2019-04-20T16:11:59.123Z,20.10
2019-04-20T16:15:03.935Z,20.00
2019-04-20T16:18:07.527Z,19.90
2019-04-20T16:21:17.839Z,19.80
2019-04-20T16:24:16.923Z,19.70
2019-04-20T16:27:31.764Z,19.70
2019-04-20T16:30:35.884Z,19.60
2019-04-20T16:33:39.437Z,19.60
2019-04-20T16:36:44.358Z,19.50
2019-04-20T16:39:48.350Z,19.50
2019-04-20T16:42:52.155Z,19.40
2019-04-20T16:45:55.654Z,19.40
2019-04-20T16:48:59.111Z,19.30
2019-04-20T16:52:03.016Z,19.30
2019-04-20T16:55:08.107Z,19.20
2019-04-20T16:58:13.377Z,19.10
2019-04-20T17:01:17.242Z,19.10
2019-04-20T17:04:22.991Z,19.10
2019-04-20T17:07:31.200Z,19.00
2019-04-20T17:10:34.911Z,19.00
2019-04-20T17:13:44.175Z,18.90
2019-04-20T17:16:43.856Z,18.80
2019-04-20T17:19:47.481Z,18.70
2019-04-20T17:22:50.939Z,18.70
2019-04-20T17:25:55.673Z,18.60
2019-04-20T17:29:18.093Z,18.50
2019-04-20T17:32:23.410Z,18.50
2019-04-20T17:35:37.974Z,18.40
2019-04-20T17:38:38.602Z,18.40
2019-04-20T17:41:56.323Z,18.30
2019-04-20T17:44:53.050Z,18.20
2019-04-20T17:48:07.250Z,18.20
2019-04-20T17:51:13.931Z,18.10
2019-04-20T17:54:17.589Z,18.10
2019-04-20T17:57:21.554Z,18.10
2019-04-20T18:00:29.933Z,18.00
2019-04-20T18:06:56.732Z,17.80
2019-04-20T18:10:09.793Z,17.70
2019-04-20T18:12:56.557Z,17.60
2019-04-20T18:16:22.221Z,17.50
2019-04-20T18:19:13.272Z,17.30
2019-04-20T18:22:13.846Z,17.20
2019-04-20T18:25:41.700Z,17.00
2019-04-20T18:28:39.998Z,16.80
2019-04-20T18:31:39.579Z,16.70
2019-04-20T18:34:53.024Z,16.60
2019-04-20T18:38:00.813Z,16.50
2019-04-20T18:41:05.781Z,16.40
2019-04-20T18:44:04.524Z,16.30
2019-04-20T18:47:31.795Z,16.30
2019-04-20T18:50:22.939Z,16.30
2019-04-20T18:53:28.737Z,16.30
2019-04-20T18:56:31.051Z,16.30
2019-04-20T18:59:39.959Z,16.30
2019-04-20T19:02:40.956Z,16.30
2019-04-20T19:05:42.134Z,16.30
2019-04-20T19:08:49.979Z,16.20
2019-04-20T19:12:00.018Z,16.10
2019-04-20T19:15:19.724Z,16.10
2019-04-20T19:18:23.809Z,16.10
2019-04-20T19:21:15.215Z,16.00
2019-04-20T19:24:21.811Z,16.00
2019-04-20T19:27:33.646Z,15.90
2019-04-20T19:30:39.857Z,15.80
2019-04-20T19:33:57.446Z,15.80
2019-04-20T19:36:53.401Z,15.70
2019-04-20T19:40:00.984Z,15.70
2019-04-20T19:43:02.418Z,15.70
2019-04-20T19:46:35.404Z,15.70
2019-04-20T19:49:14.247Z,15.70
2019-04-20T19:52:43.337Z,15.60
2019-04-20T19:55:27.375Z,15.60
2019-04-20T19:58:28.067Z,15.50
2019-04-20T20:01:22.055Z,15.40
2019-04-20T20:04:25.909Z,15.40
2019-04-20T20:07:37.525Z,15.40
2019-04-20T20:10:38.036Z,15.40
2019-04-20T20:13:44.679Z,15.30
2019-04-20T20:17:04.946Z,15.20
2019-04-20T20:20:14.634Z,15.10
2019-04-20T20:22:58.254Z,15.00
2019-04-20T20:26:02.306Z,15.00
2019-04-20T20:29:17.022Z,14.90
2019-04-20T20:32:21.379Z,14.80
2019-04-20T20:35:23.550Z,14.80
2019-04-20T20:38:28.098Z,14.70
2019-04-20T20:41:31.695Z,14.60
2019-04-20T20:44:44.085Z,14.50
2019-04-20T20:47:53.741Z,14.50
2019-04-20T20:50:58.548Z,14.40
2019-04-20T20:53:59.015Z,14.30
2019-04-20T20:57:01.451Z,14.20
2019-04-20T21:00:03.560Z,14.10
2019-04-20T21:03:06.026Z,14.20
2019-04-20T21:06:09.571Z,14.10
2019-04-20T21:09:14.448Z,14.00
2019-04-20T21:12:19.912Z,13.90
2019-04-20T21:15:26.067Z,13.80
2019-04-20T21:18:49.049Z,13.70
2019-04-20T21:21:44.316Z,13.60
2019-04-20T21:24:46.728Z,13.60
2019-04-20T21:27:48.709Z,13.50
2019-04-20T21:30:53.552Z,13.50
2019-04-20T21:34:02.827Z,13.50
2019-04-20T21:37:11.591Z,13.50
2019-04-20T21:40:21.346Z,13.50
2019-04-20T21:43:14.589Z,13.50
2019-04-20T21:46:18.958Z,13.40
2019-04-20T21:49:37.617Z,13.40
2019-04-20T21:52:36.370Z,13.30
2019-04-20T21:55:34.114Z,13.20
2019-04-20T21:58:43.543Z,13.10
2019-04-20T22:01:56.368Z,12.90
2019-04-20T22:04:49.278Z,12.80
2019-04-20T22:07:57.695Z,12.60
2019-04-20T22:10:58.087Z,12.60
2019-04-20T22:14:09.232Z,12.50
2019-04-20T22:17:07.849Z,12.50
2019-04-20T22:20:20.122Z,12.50
2019-04-20T22:23:36.394Z,12.50
2019-04-20T22:26:30.990Z,12.50
2019-04-20T22:29:28.063Z,12.50
2019-04-20T22:32:32.260Z,12.60
2019-04-20T22:35:42.660Z,12.60
2019-04-20T22:39:01.296Z,12.70
2019-04-20T22:42:08.987Z,12.80
2019-04-20T22:45:13.694Z,12.90
2019-04-20T22:48:17.657Z,12.90
2019-04-20T22:51:34.283Z,13.00
2019-04-20T22:54:40.419Z,12.90
2019-04-20T22:57:47.501Z,12.80
2019-04-20T23:00:43.188Z,12.70
2019-04-20T23:03:41.162Z,12.60
2019-04-20T23:06:48.546Z,12.60
2019-04-20T23:09:53.991Z,12.50
2019-04-20T23:12:59.194Z,12.50
2019-04-20T23:16:02.271Z,12.50
2019-04-20T23:19:05.793Z,12.50
2019-04-20T23:22:13.515Z,12.50
2019-04-20T23:25:15.366Z,12.50
2019-04-20T23:28:20.626Z,12.50
2019-04-20T23:31:26.683Z,12.60
2019-04-20T23:34:32.360Z,12.60
2019-04-20T23:37:36.987Z,12.60
2019-04-20T23:40:39.728Z,12.60
2019-04-20T23:43:45.277Z,12.60
2019-04-20T23:47:01.171Z,12.50
2019-04-20T23:50:17.617Z,12.50
2019-04-20T23:53:24.313Z,12.60
2019-04-20T23:56:17.502Z,12.50
2019-04-20T23:59:25.217Z,12.50
